sensor_id;sensor_type;location;lat;lon;timestamp;P1;durP1;ratioP1;P2;durP2;ratioP2
47555;SDS011;33291;46.222;26.460;2022-12-18T00:00:40;17.05;;;10.48;;
47555;SDS011;33291;46.222;26.460;2022-12-18T00:03:06;16.90;;;9.25;;
47555;SDS011;33291;46.222;26.460;2022-12-18T00:05:32;13.73;;;8.88;;
47555;SDS011;33291;46.222;26.460;2022-12-18T00:07:57;15.00;;;8.05;;
47555;SDS011;33291;46.222;26.460;2022-12-18T00:10:23;14.05;;;8.77;;
47555;SDS011;33291;46.222;26.460;2022-12-18T00:12:48;14.30;;;8.35;;
47555;SDS011;33291;46.222;26.460;2022-12-18T00:15:14;14.85;;;8.30;;
47555;SDS011;33291;46.222;26.460;2022-12-18T00:17:39;18.17;;;8.98;;
47555;SDS011;33291;46.222;26.460;2022-12-18T00:20:05;13.35;;;9.07;;
47555;SDS011;33291;46.222;26.460;2022-12-18T00:22:30;16.77;;;10.55;;
47555;SDS011;33291;46.222;26.460;2022-12-18T00:24:56;14.13;;;8.70;;
47555;SDS011;33291;46.222;26.460;2022-12-18T00:27:21;16.10;;;9.57;;
47555;SDS011;33291;46.222;26.460;2022-12-18T00:29:47;13.88;;;9.30;;
47555;SDS011;33291;46.222;26.460;2022-12-18T00:32:13;17.75;;;11.25;;
47555;SDS011;33291;46.222;26.460;2022-12-18T00:34:39;13.20;;;9.10;;
47555;SDS011;33291;46.222;26.460;2022-12-18T00:37:04;15.43;;;10.00;;
47555;SDS011;33291;46.222;26.460;2022-12-18T00:39:30;15.23;;;9.75;;
47555;SDS011;33291;46.222;26.460;2022-12-18T00:41:55;19.48;;;10.50;;
47555;SDS011;33291;46.222;26.460;2022-12-18T00:44:39;16.02;;;10.15;;
47555;SDS011;33291;46.222;26.460;2022-12-18T00:47:05;18.40;;;11.38;;
47555;SDS011;33291;46.222;26.460;2022-12-18T00:49:30;14.40;;;9.02;;
47555;SDS011;33291;46.222;26.460;2022-12-18T00:51:56;16.08;;;9.65;;
47555;SDS011;33291;46.222;26.460;2022-12-18T00:54:21;16.73;;;8.82;;
47555;SDS011;33291;46.222;26.460;2022-12-18T00:56:47;17.65;;;9.45;;
47555;SDS011;33291;46.222;26.460;2022-12-18T00:59:12;12.30;;;7.57;;
47555;SDS011;33291;46.222;26.460;2022-12-18T01:01:38;11.23;;;7.20;;
47555;SDS011;33291;46.222;26.460;2022-12-18T01:04:04;9.85;;;5.53;;
47555;SDS011;33291;46.222;26.460;2022-12-18T01:06:30;7.55;;;4.47;;
47555;SDS011;33291;46.222;26.460;2022-12-18T01:08:56;17.13;;;8.77;;
47555;SDS011;33291;46.222;26.460;2022-12-18T01:11:22;15.40;;;9.00;;
47555;SDS011;33291;46.222;26.460;2022-12-18T01:13:48;14.32;;;7.47;;
47555;SDS011;33291;46.222;26.460;2022-12-18T01:16:15;12.10;;;7.72;;
47555;SDS011;33291;46.222;26.460;2022-12-18T01:18:41;14.55;;;8.40;;
47555;SDS011;33291;46.222;26.460;2022-12-18T01:21:08;14.52;;;8.52;;
47555;SDS011;33291;46.222;26.460;2022-12-18T01:23:35;13.90;;;8.25;;
47555;SDS011;33291;46.222;26.460;2022-12-18T01:26:05;13.90;;;8.95;;
47555;SDS011;33291;46.222;26.460;2022-12-18T01:28:32;16.05;;;9.23;;
47555;SDS011;33291;46.222;26.460;2022-12-18T01:30:57;12.40;;;8.00;;
47555;SDS011;33291;46.222;26.460;2022-12-18T01:33:23;12.50;;;7.97;;
47555;SDS011;33291;46.222;26.460;2022-12-18T01:35:48;10.88;;;7.25;;
47555;SDS011;33291;46.222;26.460;2022-12-18T01:38:14;13.68;;;8.25;;
47555;SDS011;33291;46.222;26.460;2022-12-18T01:40:39;11.85;;;7.25;;
47555;SDS011;33291;46.222;26.460;2022-12-18T01:43:05;11.27;;;7.13;;
47555;SDS011;33291;46.222;26.460;2022-12-18T01:45:31;12.77;;;7.80;;
47555;SDS011;33291;46.222;26.460;2022-12-18T01:48:06;14.32;;;8.20;;
47555;SDS011;33291;46.222;26.460;2022-12-18T01:50:38;13.00;;;7.30;;
47555;SDS011;33291;46.222;26.460;2022-12-18T01:53:16;6.03;;;3.70;;
47555;SDS011;33291;46.222;26.460;2022-12-18T01:55:53;10.13;;;6.18;;
47555;SDS011;33291;46.222;26.460;2022-12-18T02:01:23;11.75;;;7.18;;
47555;SDS011;33291;46.222;26.460;2022-12-18T02:03:50;13.18;;;7.80;;
47555;SDS011;33291;46.222;26.460;2022-12-18T02:06:36;12.77;;;7.55;;
47555;SDS011;33291;46.222;26.460;2022-12-18T02:09:13;12.25;;;7.63;;
47555;SDS011;33291;46.222;26.460;2022-12-18T02:22:33;2.35;;;1.17;;
47555;SDS011;33291;46.222;26.460;2022-12-18T02:27:52;2.67;;;1.27;;
47555;SDS011;33291;46.222;26.460;2022-12-18T02:30:23;2.53;;;1.45;;
47555;SDS011;33291;46.222;26.460;2022-12-18T02:32:50;2.63;;;1.48;;
47555;SDS011;33291;46.222;26.460;2022-12-18T02:35:24;1.38;;;1.05;;
47555;SDS011;33291;46.222;26.460;2022-12-18T02:37:54;1.67;;;0.80;;
47555;SDS011;33291;46.222;26.460;2022-12-18T02:40:20;1.02;;;0.57;;
47555;SDS011;33291;46.222;26.460;2022-12-18T02:42:48;1.65;;;0.88;;
47555;SDS011;33291;46.222;26.460;2022-12-18T02:45:14;4.47;;;0.85;;
47555;SDS011;33291;46.222;26.460;2022-12-18T02:47:40;2.25;;;1.30;;
47555;SDS011;33291;46.222;26.460;2022-12-18T02:58:39;1.40;;;0.85;;
47555;SDS011;33291;46.222;26.460;2022-12-18T03:01:21;1.33;;;0.95;;
47555;SDS011;33291;46.222;26.460;2022-12-18T03:03:55;3.25;;;0.90;;
47555;SDS011;33291;46.222;26.460;2022-12-18T03:06:35;2.08;;;1.02;;
47555;SDS011;33291;46.222;26.460;2022-12-18T03:09:07;2.33;;;1.10;;
47555;SDS011;33291;46.222;26.460;2022-12-18T03:11:41;1.80;;;1.13;;
47555;SDS011;33291;46.222;26.460;2022-12-18T03:14:30;2.30;;;1.20;;
47555;SDS011;33291;46.222;26.460;2022-12-18T03:17:00;1.48;;;0.98;;
47555;SDS011;33291;46.222;26.460;2022-12-18T03:19:29;1.85;;;1.00;;
47555;SDS011;33291;46.222;26.460;2022-12-18T03:21:57;1.75;;;0.98;;
47555;SDS011;33291;46.222;26.460;2022-12-18T03:24:26;1.20;;;0.77;;
47555;SDS011;33291;46.222;26.460;2022-12-18T03:26:57;2.13;;;1.08;;
47555;SDS011;33291;46.222;26.460;2022-12-18T03:29:29;1.58;;;0.98;;
47555;SDS011;33291;46.222;26.460;2022-12-18T03:32:02;1.90;;;1.05;;
47555;SDS011;33291;46.222;26.460;2022-12-18T03:34:32;1.27;;;0.70;;
47555;SDS011;33291;46.222;26.460;2022-12-18T03:37:00;2.03;;;1.10;;
47555;SDS011;33291;46.222;26.460;2022-12-18T03:39:29;1.63;;;0.88;;
47555;SDS011;33291;46.222;26.460;2022-12-18T03:45:02;1.67;;;0.98;;
47555;SDS011;33291;46.222;26.460;2022-12-18T03:52:51;1.83;;;1.00;;
47555;SDS011;33291;46.222;26.460;2022-12-18T03:55:22;1.50;;;0.93;;
47555;SDS011;33291;46.222;26.460;2022-12-18T03:57:50;1.65;;;1.02;;
47555;SDS011;33291;46.222;26.460;2022-12-18T04:00:17;2.25;;;1.30;;
47555;SDS011;33291;46.222;26.460;2022-12-18T04:02:51;2.50;;;1.05;;
47555;SDS011;33291;46.222;26.460;2022-12-18T04:05:20;3.38;;;1.42;;
47555;SDS011;33291;46.222;26.460;2022-12-18T04:07:48;2.28;;;1.50;;
47555;SDS011;33291;46.222;26.460;2022-12-18T04:10:16;1.67;;;0.85;;
47555;SDS011;33291;46.222;26.460;2022-12-18T04:12:42;1.98;;;1.20;;
47555;SDS011;33291;46.222;26.460;2022-12-18T04:15:08;1.50;;;1.00;;
47555;SDS011;33291;46.222;26.460;2022-12-18T04:17:35;1.40;;;0.98;;
47555;SDS011;33291;46.222;26.460;2022-12-18T04:20:00;2.30;;;1.48;;
47555;SDS011;33291;46.222;26.460;2022-12-18T04:22:26;2.22;;;1.50;;
47555;SDS011;33291;46.222;26.460;2022-12-18T04:24:51;1.45;;;1.20;;
47555;SDS011;33291;46.222;26.460;2022-12-18T04:27:16;2.65;;;1.42;;
47555;SDS011;33291;46.222;26.460;2022-12-18T04:29:42;3.05;;;1.50;;
47555;SDS011;33291;46.222;26.460;2022-12-18T04:32:08;3.45;;;1.15;;
47555;SDS011;33291;46.222;26.460;2022-12-18T04:34:33;2.47;;;1.30;;
47555;SDS011;33291;46.222;26.460;2022-12-18T04:36:59;2.75;;;1.60;;
47555;SDS011;33291;46.222;26.460;2022-12-18T04:39:24;1.85;;;0.90;;
47555;SDS011;33291;46.222;26.460;2022-12-18T04:41:50;2.65;;;1.30;;
47555;SDS011;33291;46.222;26.460;2022-12-18T04:44:15;2.08;;;1.13;;
47555;SDS011;33291;46.222;26.460;2022-12-18T04:46:41;2.40;;;1.35;;
47555;SDS011;33291;46.222;26.460;2022-12-18T04:49:06;1.65;;;1.00;;
47555;SDS011;33291;46.222;26.460;2022-12-18T04:51:32;3.35;;;2.03;;
47555;SDS011;33291;46.222;26.460;2022-12-18T04:53:57;1.48;;;1.05;;
47555;SDS011;33291;46.222;26.460;2022-12-18T04:56:23;1.92;;;1.48;;
47555;SDS011;33291;46.222;26.460;2022-12-18T04:58:48;3.35;;;1.75;;
47555;SDS011;33291;46.222;26.460;2022-12-18T05:01:15;2.72;;;1.38;;
47555;SDS011;33291;46.222;26.460;2022-12-18T05:03:42;2.45;;;1.50;;
47555;SDS011;33291;46.222;26.460;2022-12-18T05:06:08;2.65;;;1.75;;
47555;SDS011;33291;46.222;26.460;2022-12-18T05:08:34;4.18;;;1.45;;
47555;SDS011;33291;46.222;26.460;2022-12-18T05:11:00;3.03;;;1.80;;
47555;SDS011;33291;46.222;26.460;2022-12-18T05:13:26;2.60;;;1.40;;
47555;SDS011;33291;46.222;26.460;2022-12-18T05:15:52;2.30;;;1.33;;
47555;SDS011;33291;46.222;26.460;2022-12-18T05:18:18;3.30;;;2.10;;
47555;SDS011;33291;46.222;26.460;2022-12-18T05:20:43;2.63;;;1.77;;
47555;SDS011;33291;46.222;26.460;2022-12-18T05:23:09;2.47;;;1.83;;
47555;SDS011;33291;46.222;26.460;2022-12-18T05:25:34;2.50;;;1.38;;
47555;SDS011;33291;46.222;26.460;2022-12-18T05:28:00;14.55;;;1.63;;
47555;SDS011;33291;46.222;26.460;2022-12-18T05:30:25;2.78;;;1.50;;
47555;SDS011;33291;46.222;26.460;2022-12-18T05:32:52;3.20;;;1.48;;
47555;SDS011;33291;46.222;26.460;2022-12-18T05:35:18;6.07;;;1.58;;
47555;SDS011;33291;46.222;26.460;2022-12-18T05:37:43;3.10;;;2.17;;
47555;SDS011;33291;46.222;26.460;2022-12-18T05:40:09;2.85;;;1.75;;
47555;SDS011;33291;46.222;26.460;2022-12-18T05:42:36;2.63;;;1.77;;
47555;SDS011;33291;46.222;26.460;2022-12-18T05:45:01;3.63;;;1.85;;
47555;SDS011;33291;46.222;26.460;2022-12-18T05:47:27;3.03;;;1.77;;
47555;SDS011;33291;46.222;26.460;2022-12-18T05:49:53;2.78;;;1.60;;
47555;SDS011;33291;46.222;26.460;2022-12-18T05:52:19;2.42;;;1.45;;
47555;SDS011;33291;46.222;26.460;2022-12-18T05:54:45;5.00;;;1.67;;
47555;SDS011;33291;46.222;26.460;2022-12-18T05:57:10;3.67;;;1.83;;
47555;SDS011;33291;46.222;26.460;2022-12-18T05:59:36;3.38;;;1.95;;
47555;SDS011;33291;46.222;26.460;2022-12-18T06:02:01;2.83;;;1.30;;
47555;SDS011;33291;46.222;26.460;2022-12-18T06:04:27;2.95;;;1.70;;
47555;SDS011;33291;46.222;26.460;2022-12-18T06:06:56;3.60;;;1.50;;
47555;SDS011;33291;46.222;26.460;2022-12-18T06:09:21;3.45;;;1.60;;
47555;SDS011;33291;46.222;26.460;2022-12-18T06:11:47;2.50;;;1.50;;
47555;SDS011;33291;46.222;26.460;2022-12-18T06:14:13;3.33;;;2.05;;
47555;SDS011;33291;46.222;26.460;2022-12-18T06:16:38;4.13;;;1.55;;
47555;SDS011;33291;46.222;26.460;2022-12-18T06:19:05;3.50;;;1.85;;
47555;SDS011;33291;46.222;26.460;2022-12-18T06:21:31;3.03;;;1.70;;
47555;SDS011;33291;46.222;26.460;2022-12-18T06:23:57;2.47;;;1.45;;
47555;SDS011;33291;46.222;26.460;2022-12-18T06:26:23;5.55;;;1.67;;
47555;SDS011;33291;46.222;26.460;2022-12-18T06:28:49;3.45;;;1.33;;
47555;SDS011;33291;46.222;26.460;2022-12-18T06:31:14;3.47;;;1.90;;
47555;SDS011;33291;46.222;26.460;2022-12-18T06:33:40;4.70;;;1.85;;
47555;SDS011;33291;46.222;26.460;2022-12-18T06:38:33;4.05;;;1.80;;
47555;SDS011;33291;46.222;26.460;2022-12-18T06:41:00;5.18;;;2.47;;
47555;SDS011;33291;46.222;26.460;2022-12-18T06:43:30;3.33;;;1.88;;
47555;SDS011;33291;46.222;26.460;2022-12-18T06:45:59;10.57;;;4.30;;
47555;SDS011;33291;46.222;26.460;2022-12-18T06:48:25;2.28;;;1.63;;
47555;SDS011;33291;46.222;26.460;2022-12-18T06:50:51;3.85;;;1.80;;
47555;SDS011;33291;46.222;26.460;2022-12-18T06:53:17;6.55;;;2.55;;
47555;SDS011;33291;46.222;26.460;2022-12-18T06:55:42;7.45;;;3.22;;
47555;SDS011;33291;46.222;26.460;2022-12-18T06:58:08;3.95;;;2.38;;
47555;SDS011;33291;46.222;26.460;2022-12-18T07:00:33;5.82;;;3.30;;
47555;SDS011;33291;46.222;26.460;2022-12-18T07:02:59;4.28;;;2.10;;
47555;SDS011;33291;46.222;26.460;2022-12-18T07:05:24;4.97;;;2.63;;
47555;SDS011;33291;46.222;26.460;2022-12-18T07:07:50;6.55;;;2.90;;
47555;SDS011;33291;46.222;26.460;2022-12-18T07:10:15;9.50;;;3.95;;
47555;SDS011;33291;46.222;26.460;2022-12-18T07:12:41;5.95;;;2.90;;
47555;SDS011;33291;46.222;26.460;2022-12-18T07:15:06;4.97;;;2.38;;
47555;SDS011;33291;46.222;26.460;2022-12-18T07:17:32;3.92;;;2.13;;
47555;SDS011;33291;46.222;26.460;2022-12-18T07:19:58;8.63;;;3.50;;
47555;SDS011;33291;46.222;26.460;2022-12-18T07:22:24;4.28;;;2.40;;
47555;SDS011;33291;46.222;26.460;2022-12-18T07:24:50;5.72;;;2.63;;
47555;SDS011;33291;46.222;26.460;2022-12-18T07:27:16;4.72;;;2.53;;
47555;SDS011;33291;46.222;26.460;2022-12-18T07:29:42;4.57;;;2.70;;
47555;SDS011;33291;46.222;26.460;2022-12-18T07:32:07;3.90;;;2.40;;
47555;SDS011;33291;46.222;26.460;2022-12-18T07:34:33;6.47;;;3.45;;
47555;SDS011;33291;46.222;26.460;2022-12-18T07:36:59;5.32;;;3.10;;
47555;SDS011;33291;46.222;26.460;2022-12-18T07:39:24;4.57;;;2.60;;
47555;SDS011;33291;46.222;26.460;2022-12-18T07:41:50;8.10;;;4.22;;
47555;SDS011;33291;46.222;26.460;2022-12-18T07:46:59;4.70;;;2.40;;
47555;SDS011;33291;46.222;26.460;2022-12-18T07:49:24;12.48;;;5.30;;
47555;SDS011;33291;46.222;26.460;2022-12-18T07:51:50;8.45;;;4.10;;
47555;SDS011;33291;46.222;26.460;2022-12-18T07:54:15;5.90;;;3.22;;
47555;SDS011;33291;46.222;26.460;2022-12-18T07:56:41;6.32;;;3.13;;
47555;SDS011;33291;46.222;26.460;2022-12-18T07:59:06;9.57;;;4.00;;
47555;SDS011;33291;46.222;26.460;2022-12-18T08:01:32;6.70;;;4.07;;
47555;SDS011;33291;46.222;26.460;2022-12-18T08:03:58;8.65;;;4.63;;
47555;SDS011;33291;46.222;26.460;2022-12-18T08:06:24;6.22;;;3.40;;
47555;SDS011;33291;46.222;26.460;2022-12-18T08:08:50;6.30;;;3.15;;
47555;SDS011;33291;46.222;26.460;2022-12-18T08:11:17;10.40;;;3.60;;
47555;SDS011;33291;46.222;26.460;2022-12-18T08:13:42;6.57;;;3.10;;
47555;SDS011;33291;46.222;26.460;2022-12-18T08:16:08;4.80;;;2.85;;
47555;SDS011;33291;46.222;26.460;2022-12-18T08:18:34;5.63;;;3.00;;
47555;SDS011;33291;46.222;26.460;2022-12-18T08:21:12;6.18;;;3.45;;
47555;SDS011;33291;46.222;26.460;2022-12-18T08:23:52;7.60;;;3.65;;
47555;SDS011;33291;46.222;26.460;2022-12-18T08:26:19;8.23;;;3.95;;
47555;SDS011;33291;46.222;26.460;2022-12-18T08:28:45;11.15;;;3.30;;
47555;SDS011;33291;46.222;26.460;2022-12-18T08:31:10;5.10;;;2.90;;
47555;SDS011;33291;46.222;26.460;2022-12-18T08:33:36;6.95;;;3.40;;
47555;SDS011;33291;46.222;26.460;2022-12-18T08:36:04;5.85;;;3.05;;
47555;SDS011;33291;46.222;26.460;2022-12-18T08:38:31;5.43;;;3.25;;
47555;SDS011;33291;46.222;26.460;2022-12-18T08:41:00;7.22;;;3.63;;
47555;SDS011;33291;46.222;26.460;2022-12-18T08:43:29;4.70;;;2.95;;
47555;SDS011;33291;46.222;26.460;2022-12-18T08:48:42;6.05;;;3.10;;
47555;SDS011;33291;46.222;26.460;2022-12-18T08:51:08;5.68;;;3.20;;
47555;SDS011;33291;46.222;26.460;2022-12-18T08:53:35;6.85;;;3.97;;
47555;SDS011;33291;46.222;26.460;2022-12-18T08:56:01;6.85;;;3.72;;
47555;SDS011;33291;46.222;26.460;2022-12-18T08:58:27;5.82;;;3.65;;
47555;SDS011;33291;46.222;26.460;2022-12-18T09:00:53;5.95;;;3.40;;
47555;SDS011;33291;46.222;26.460;2022-12-18T09:03:18;7.93;;;3.42;;
47555;SDS011;33291;46.222;26.460;2022-12-18T09:05:47;8.00;;;4.05;;
47555;SDS011;33291;46.222;26.460;2022-12-18T09:08:13;8.38;;;4.38;;
47555;SDS011;33291;46.222;26.460;2022-12-18T09:10:42;5.65;;;3.38;;
47555;SDS011;33291;46.222;26.460;2022-12-18T09:13:09;8.80;;;4.50;;
47555;SDS011;33291;46.222;26.460;2022-12-18T09:15:39;7.15;;;3.75;;
47555;SDS011;33291;46.222;26.460;2022-12-18T09:18:13;8.10;;;4.30;;
47555;SDS011;33291;46.222;26.460;2022-12-18T09:20:40;6.32;;;3.88;;
47555;SDS011;33291;46.222;26.460;2022-12-18T09:23:05;6.18;;;4.20;;
47555;SDS011;33291;46.222;26.460;2022-12-18T09:25:31;9.20;;;4.60;;
47555;SDS011;33291;46.222;26.460;2022-12-18T09:27:58;21.95;;;10.00;;
47555;SDS011;33291;46.222;26.460;2022-12-18T09:30:25;21.55;;;9.77;;
47555;SDS011;33291;46.222;26.460;2022-12-18T09:32:54;10.05;;;4.13;;
47555;SDS011;33291;46.222;26.460;2022-12-18T09:35:20;8.10;;;4.35;;
47555;SDS011;33291;46.222;26.460;2022-12-18T09:37:46;8.30;;;4.10;;
47555;SDS011;33291;46.222;26.460;2022-12-18T09:40:18;8.85;;;4.35;;
47555;SDS011;33291;46.222;26.460;2022-12-18T09:42:47;7.95;;;4.80;;
47555;SDS011;33291;46.222;26.460;2022-12-18T09:45:18;8.50;;;4.55;;
47555;SDS011;33291;46.222;26.460;2022-12-18T09:47:44;8.30;;;3.90;;
47555;SDS011;33291;46.222;26.460;2022-12-18T09:52:47;10.75;;;3.90;;
47555;SDS011;33291;46.222;26.460;2022-12-18T09:55:30;10.75;;;4.50;;
47555;SDS011;33291;46.222;26.460;2022-12-18T10:00:52;13.20;;;5.13;;
47555;SDS011;33291;46.222;26.460;2022-12-18T10:03:18;10.45;;;5.10;;
47555;SDS011;33291;46.222;26.460;2022-12-18T10:08:23;8.90;;;4.70;;
47555;SDS011;33291;46.222;26.460;2022-12-18T10:10:53;6.70;;;3.75;;
47555;SDS011;33291;46.222;26.460;2022-12-18T10:13:52;8.00;;;5.00;;
47555;SDS011;33291;46.222;26.460;2022-12-18T10:16:25;6.28;;;3.85;;
47555;SDS011;33291;46.222;26.460;2022-12-18T10:21:32;9.48;;;5.05;;
47555;SDS011;33291;46.222;26.460;2022-12-18T10:26:31;7.82;;;4.93;;
47555;SDS011;33291;46.222;26.460;2022-12-18T10:28:57;8.88;;;4.30;;
47555;SDS011;33291;46.222;26.460;2022-12-18T10:31:24;9.25;;;4.68;;
47555;SDS011;33291;46.222;26.460;2022-12-18T10:33:50;8.10;;;4.35;;
47555;SDS011;33291;46.222;26.460;2022-12-18T10:36:18;8.45;;;4.28;;
47555;SDS011;33291;46.222;26.460;2022-12-18T10:38:45;9.98;;;4.53;;
47555;SDS011;33291;46.222;26.460;2022-12-18T10:43:47;8.70;;;3.70;;
47555;SDS011;33291;46.222;26.460;2022-12-18T10:46:16;7.78;;;3.88;;
47555;SDS011;33291;46.222;26.460;2022-12-18T10:54:16;13.68;;;4.65;;
47555;SDS011;33291;46.222;26.460;2022-12-18T10:56:44;10.20;;;4.45;;
47555;SDS011;33291;46.222;26.460;2022-12-18T10:59:11;8.27;;;4.38;;
47555;SDS011;33291;46.222;26.460;2022-12-18T11:01:45;10.77;;;5.13;;
47555;SDS011;33291;46.222;26.460;2022-12-18T11:04:29;8.32;;;4.80;;
47555;SDS011;33291;46.222;26.460;2022-12-18T11:07:00;10.00;;;4.55;;
47555;SDS011;33291;46.222;26.460;2022-12-18T11:09:28;8.65;;;5.00;;
47555;SDS011;33291;46.222;26.460;2022-12-18T11:11:57;9.88;;;5.25;;
47555;SDS011;33291;46.222;26.460;2022-12-18T11:14:28;8.63;;;4.78;;
47555;SDS011;33291;46.222;26.460;2022-12-18T11:16:57;8.50;;;5.03;;
47555;SDS011;33291;46.222;26.460;2022-12-18T11:22:21;9.43;;;5.03;;
47555;SDS011;33291;46.222;26.460;2022-12-18T11:27:24;9.15;;;4.68;;
47555;SDS011;33291;46.222;26.460;2022-12-18T11:29:50;8.05;;;4.70;;
47555;SDS011;33291;46.222;26.460;2022-12-18T11:32:38;7.10;;;4.03;;
47555;SDS011;33291;46.222;26.460;2022-12-18T11:37:38;12.60;;;5.07;;
47555;SDS011;33291;46.222;26.460;2022-12-18T11:40:10;9.55;;;5.32;;
47555;SDS011;33291;46.222;26.460;2022-12-18T11:47:45;9.02;;;5.00;;
47555;SDS011;33291;46.222;26.460;2022-12-18T11:50:24;9.77;;;5.03;;
47555;SDS011;33291;46.222;26.460;2022-12-18T11:52:54;8.30;;;5.05;;
47555;SDS011;33291;46.222;26.460;2022-12-18T11:55:25;12.00;;;5.60;;
47555;SDS011;33291;46.222;26.460;2022-12-18T12:00:58;6.70;;;4.20;;
47555;SDS011;33291;46.222;26.460;2022-12-18T12:09:42;8.50;;;4.82;;
47555;SDS011;33291;46.222;26.460;2022-12-18T12:14:52;8.93;;;4.70;;
47555;SDS011;33291;46.222;26.460;2022-12-18T12:20:21;6.88;;;4.40;;
47555;SDS011;33291;46.222;26.460;2022-12-18T12:26:07;7.60;;;4.47;;
47555;SDS011;33291;46.222;26.460;2022-12-18T12:39:36;5.90;;;4.07;;
47555;SDS011;33291;46.222;26.460;2022-12-18T12:42:05;9.00;;;5.15;;
47555;SDS011;33291;46.222;26.460;2022-12-18T12:44:58;6.15;;;3.28;;
47555;SDS011;33291;46.222;26.460;2022-12-18T12:47:32;11.13;;;5.50;;
47555;SDS011;33291;46.222;26.460;2022-12-18T12:50:03;8.20;;;4.00;;
47555;SDS011;33291;46.222;26.460;2022-12-18T12:52:41;8.70;;;4.22;;
47555;SDS011;33291;46.222;26.460;2022-12-18T12:55:28;7.75;;;4.40;;
47555;SDS011;33291;46.222;26.460;2022-12-18T13:00:20;19.42;;;9.60;;
47555;SDS011;33291;46.222;26.460;2022-12-18T13:05:45;23.10;;;13.00;;
47555;SDS011;33291;46.222;26.460;2022-12-18T13:08:30;22.55;;;12.07;;
47555;SDS011;33291;46.222;26.460;2022-12-18T13:11:28;25.75;;;12.48;;
47555;SDS011;33291;46.222;26.460;2022-12-18T13:14:20;26.27;;;13.43;;
47555;SDS011;33291;46.222;26.460;2022-12-18T13:16:51;23.23;;;12.23;;
47555;SDS011;33291;46.222;26.460;2022-12-18T13:19:37;21.60;;;11.85;;
47555;SDS011;33291;46.222;26.460;2022-12-18T13:22:03;24.70;;;12.38;;
47555;SDS011;33291;46.222;26.460;2022-12-18T13:24:30;24.90;;;12.85;;
47555;SDS011;33291;46.222;26.460;2022-12-18T13:26:56;26.80;;;14.73;;
47555;SDS011;33291;46.222;26.460;2022-12-18T13:32:18;25.45;;;14.25;;
47555;SDS011;33291;46.222;26.460;2022-12-18T13:34:46;33.65;;;16.77;;
47555;SDS011;33291;46.222;26.460;2022-12-18T13:40:24;28.40;;;14.05;;
47555;SDS011;33291;46.222;26.460;2022-12-18T13:43:14;25.35;;;12.45;;
47555;SDS011;33291;46.222;26.460;2022-12-18T13:45:49;30.08;;;14.85;;
47555;SDS011;33291;46.222;26.460;2022-12-18T13:48:25;29.73;;;16.52;;
47555;SDS011;33291;46.222;26.460;2022-12-18T13:51:13;36.95;;;19.92;;
47555;SDS011;33291;46.222;26.460;2022-12-18T13:54:06;36.65;;;18.25;;
47555;SDS011;33291;46.222;26.460;2022-12-18T13:56:42;38.75;;;16.35;;
47555;SDS011;33291;46.222;26.460;2022-12-18T14:04:23;30.55;;;15.38;;
47555;SDS011;33291;46.222;26.460;2022-12-18T14:06:51;29.77;;;14.35;;
47555;SDS011;33291;46.222;26.460;2022-12-18T14:09:24;24.60;;;13.13;;
47555;SDS011;33291;46.222;26.460;2022-12-18T14:11:52;20.50;;;12.13;;
47555;SDS011;33291;46.222;26.460;2022-12-18T14:14:40;29.10;;;14.00;;
47555;SDS011;33291;46.222;26.460;2022-12-18T14:17:11;27.30;;;12.40;;
47555;SDS011;33291;46.222;26.460;2022-12-18T14:19:37;22.77;;;11.55;;
47555;SDS011;33291;46.222;26.460;2022-12-18T14:22:11;28.85;;;13.63;;
47555;SDS011;33291;46.222;26.460;2022-12-18T14:24:43;27.48;;;13.57;;
47555;SDS011;33291;46.222;26.460;2022-12-18T14:27:27;24.02;;;12.65;;
47555;SDS011;33291;46.222;26.460;2022-12-18T14:29:53;26.58;;;12.90;;
47555;SDS011;33291;46.222;26.460;2022-12-18T14:32:19;30.75;;;13.15;;
47555;SDS011;33291;46.222;26.460;2022-12-18T14:34:46;24.73;;;13.23;;
47555;SDS011;33291;46.222;26.460;2022-12-18T14:37:18;25.25;;;12.50;;
47555;SDS011;33291;46.222;26.460;2022-12-18T14:39:56;24.88;;;14.55;;
47555;SDS011;33291;46.222;26.460;2022-12-18T14:42:24;30.67;;;14.90;;
47555;SDS011;33291;46.222;26.460;2022-12-18T14:45:31;28.15;;;15.38;;
47555;SDS011;33291;46.222;26.460;2022-12-18T14:47:56;28.88;;;14.30;;
47555;SDS011;33291;46.222;26.460;2022-12-18T14:50:22;22.52;;;11.95;;
47555;SDS011;33291;46.222;26.460;2022-12-18T14:52:48;26.30;;;12.25;;
47555;SDS011;33291;46.222;26.460;2022-12-18T14:55:15;25.13;;;13.15;;
47555;SDS011;33291;46.222;26.460;2022-12-18T14:57:44;26.05;;;13.35;;
47555;SDS011;33291;46.222;26.460;2022-12-18T15:00:20;23.35;;;13.07;;
47555;SDS011;33291;46.222;26.460;2022-12-18T15:02:50;25.92;;;15.05;;
47555;SDS011;33291;46.222;26.460;2022-12-18T15:07:54;32.80;;;16.93;;
47555;SDS011;33291;46.222;26.460;2022-12-18T15:12:47;26.65;;;14.05;;
47555;SDS011;33291;46.222;26.460;2022-12-18T15:18:02;27.60;;;13.35;;
47555;SDS011;33291;46.222;26.460;2022-12-18T15:20:31;28.02;;;14.75;;
47555;SDS011;33291;46.222;26.460;2022-12-18T15:23:04;29.92;;;15.13;;
47555;SDS011;33291;46.222;26.460;2022-12-18T15:25:34;31.02;;;17.17;;
47555;SDS011;33291;46.222;26.460;2022-12-18T15:28:02;26.25;;;14.23;;
47555;SDS011;33291;46.222;26.460;2022-12-18T15:30:29;24.50;;;13.70;;
47555;SDS011;33291;46.222;26.460;2022-12-18T15:35:55;50.47;;;24.48;;
47555;SDS011;33291;46.222;26.460;2022-12-18T15:38:25;35.20;;;16.85;;
47555;SDS011;33291;46.222;26.460;2022-12-18T15:40:52;25.75;;;13.25;;
47555;SDS011;33291;46.222;26.460;2022-12-18T15:43:19;43.28;;;21.50;;
47555;SDS011;33291;46.222;26.460;2022-12-18T15:46:14;36.37;;;18.60;;
47555;SDS011;33291;46.222;26.460;2022-12-18T15:48:42;27.80;;;14.15;;
47555;SDS011;33291;46.222;26.460;2022-12-18T15:54:00;29.23;;;13.13;;
47555;SDS011;33291;46.222;26.460;2022-12-18T15:56:28;25.00;;;13.43;;
47555;SDS011;33291;46.222;26.460;2022-12-18T15:59:13;26.05;;;14.13;;
47555;SDS011;33291;46.222;26.460;2022-12-18T16:01:41;24.77;;;12.10;;
47555;SDS011;33291;46.222;26.460;2022-12-18T16:04:11;26.20;;;11.73;;
47555;SDS011;33291;46.222;26.460;2022-12-18T16:06:38;30.00;;;15.27;;
47555;SDS011;33291;46.222;26.460;2022-12-18T16:09:03;29.80;;;14.05;;
47555;SDS011;33291;46.222;26.460;2022-12-18T16:11:30;28.50;;;13.00;;
47555;SDS011;33291;46.222;26.460;2022-12-18T16:16:49;38.92;;;18.10;;
47555;SDS011;33291;46.222;26.460;2022-12-18T16:19:20;27.27;;;14.80;;
47555;SDS011;33291;46.222;26.460;2022-12-18T16:21:46;22.98;;;11.48;;
47555;SDS011;33291;46.222;26.460;2022-12-18T16:24:23;28.40;;;14.07;;
47555;SDS011;33291;46.222;26.460;2022-12-18T16:26:50;29.20;;;14.48;;
47555;SDS011;33291;46.222;26.460;2022-12-18T16:29:17;43.45;;;20.42;;
47555;SDS011;33291;46.222;26.460;2022-12-18T16:31:43;31.63;;;15.23;;
47555;SDS011;33291;46.222;26.460;2022-12-18T16:34:12;29.55;;;14.48;;
47555;SDS011;33291;46.222;26.460;2022-12-18T16:36:39;27.77;;;14.68;;
47555;SDS011;33291;46.222;26.460;2022-12-18T16:39:05;33.20;;;17.33;;
47555;SDS011;33291;46.222;26.460;2022-12-18T16:41:30;29.40;;;15.55;;
47555;SDS011;33291;46.222;26.460;2022-12-18T16:43:57;31.67;;;15.63;;
47555;SDS011;33291;46.222;26.460;2022-12-18T16:46:22;27.17;;;13.35;;
47555;SDS011;33291;46.222;26.460;2022-12-18T16:48:48;36.45;;;16.42;;
47555;SDS011;33291;46.222;26.460;2022-12-18T16:51:13;28.33;;;14.23;;
47555;SDS011;33291;46.222;26.460;2022-12-18T16:53:39;33.72;;;15.98;;